sensor_id;sensor_type;location;lat;lon;timestamp;P1;durP1;ratioP1;P2;durP2;ratioP2
3321;SDS011;1673;51.388;7.086;2023-07-16T00:01:23;6.40;;;2.20;;
3321;SDS011;1673;51.388;7.086;2023-07-16T00:03:53;6.18;;;2.58;;
3321;SDS011;1673;51.388;7.086;2023-07-16T00:06:23;6.40;;;2.40;;
3321;SDS011;1673;51.388;7.086;2023-07-16T00:08:53;8.40;;;2.60;;
3321;SDS011;1673;51.388;7.086;2023-07-16T00:11:23;6.47;;;2.50;;
3321;SDS011;1673;51.388;7.086;2023-07-16T00:13:53;6.68;;;2.60;;
3321;SDS011;1673;51.388;7.086;2023-07-16T00:16:25;7.65;;;2.45;;
3321;SDS011;1673;51.388;7.086;2023-07-16T00:18:55;9.07;;;2.25;;
3321;SDS011;1673;51.388;7.086;2023-07-16T00:21:25;9.38;;;2.30;;
3321;SDS011;1673;51.388;7.086;2023-07-16T00:23:54;8.25;;;2.60;;
3321;SDS011;1673;51.388;7.086;2023-07-16T00:26:25;8.48;;;2.58;;
3321;SDS011;1673;51.388;7.086;2023-07-16T00:28:54;6.43;;;2.33;;
3321;SDS011;1673;51.388;7.086;2023-07-16T00:31:27;8.10;;;2.30;;
3321;SDS011;1673;51.388;7.086;2023-07-16T00:33:57;9.40;;;3.20;;
3321;SDS011;1673;51.388;7.086;2023-07-16T00:36:27;7.03;;;2.47;;
3321;SDS011;1673;51.388;7.086;2023-07-16T00:38:57;7.77;;;2.40;;
3321;SDS011;1673;51.388;7.086;2023-07-16T00:41:28;8.25;;;2.70;;
3321;SDS011;1673;51.388;7.086;2023-07-16T00:43:58;6.85;;;2.45;;
3321;SDS011;1673;51.388;7.086;2023-07-16T00:46:30;6.15;;;2.78;;
3321;SDS011;1673;51.388;7.086;2023-07-16T00:49:00;6.60;;;2.10;;
3321;SDS011;1673;51.388;7.086;2023-07-16T00:51:30;8.48;;;2.50;;
3321;SDS011;1673;51.388;7.086;2023-07-16T00:54:00;8.20;;;2.40;;
3321;SDS011;1673;51.388;7.086;2023-07-16T00:56:30;6.72;;;2.38;;
3321;SDS011;1673;51.388;7.086;2023-07-16T00:59:01;5.88;;;2.10;;
3321;SDS011;1673;51.388;7.086;2023-07-16T01:01:33;5.93;;;2.43;;
3321;SDS011;1673;51.388;7.086;2023-07-16T01:04:03;5.70;;;2.30;;
3321;SDS011;1673;51.388;7.086;2023-07-16T01:06:33;8.50;;;2.50;;
3321;SDS011;1673;51.388;7.086;2023-07-16T01:09:06;6.43;;;2.30;;
3321;SDS011;1673;51.388;7.086;2023-07-16T01:11:37;7.20;;;2.53;;
3321;SDS011;1673;51.388;7.086;2023-07-16T01:14:08;6.38;;;2.40;;
3321;SDS011;1673;51.388;7.086;2023-07-16T01:16:41;8.67;;;2.80;;
3321;SDS011;1673;51.388;7.086;2023-07-16T01:19:11;6.95;;;2.67;;
3321;SDS011;1673;51.388;7.086;2023-07-16T01:21:43;7.90;;;2.77;;
3321;SDS011;1673;51.388;7.086;2023-07-16T01:24:35;7.55;;;2.70;;
3321;SDS011;1673;51.388;7.086;2023-07-16T01:27:22;8.93;;;2.90;;
3321;SDS011;1673;51.388;7.086;2023-07-16T01:30:09;8.73;;;2.30;;
3321;SDS011;1673;51.388;7.086;2023-07-16T01:32:42;6.93;;;2.40;;
3321;SDS011;1673;51.388;7.086;2023-07-16T01:35:13;6.10;;;2.20;;
3321;SDS011;1673;51.388;7.086;2023-07-16T01:37:44;8.47;;;2.63;;
3321;SDS011;1673;51.388;7.086;2023-07-16T01:40:14;9.50;;;2.90;;
3321;SDS011;1673;51.388;7.086;2023-07-16T01:42:44;7.45;;;2.45;;
3321;SDS011;1673;51.388;7.086;2023-07-16T01:45:16;6.97;;;2.45;;
3321;SDS011;1673;51.388;7.086;2023-07-16T01:47:49;15.85;;;2.70;;
3321;SDS011;1673;51.388;7.086;2023-07-16T01:50:22;6.50;;;2.22;;
3321;SDS011;1673;51.388;7.086;2023-07-16T01:52:52;7.80;;;2.40;;
3321;SDS011;1673;51.388;7.086;2023-07-16T01:55:24;8.43;;;2.50;;
3321;SDS011;1673;51.388;7.086;2023-07-16T01:57:55;5.60;;;2.20;;
3321;SDS011;1673;51.388;7.086;2023-07-16T02:00:27;6.90;;;2.70;;
3321;SDS011;1673;51.388;7.086;2023-07-16T02:02:57;6.57;;;2.70;;
3321;SDS011;1673;51.388;7.086;2023-07-16T02:05:27;8.57;;;2.70;;
3321;SDS011;1673;51.388;7.086;2023-07-16T02:07:57;7.63;;;2.20;;
3321;SDS011;1673;51.388;7.086;2023-07-16T02:10:27;8.00;;;2.60;;
3321;SDS011;1673;51.388;7.086;2023-07-16T02:12:56;5.90;;;2.20;;
3321;SDS011;1673;51.388;7.086;2023-07-16T02:15:29;8.47;;;2.30;;
3321;SDS011;1673;51.388;7.086;2023-07-16T02:18:00;8.05;;;2.30;;
3321;SDS011;1673;51.388;7.086;2023-07-16T02:20:30;6.27;;;2.40;;
3321;SDS011;1673;51.388;7.086;2023-07-16T02:23:00;9.10;;;2.30;;
3321;SDS011;1673;51.388;7.086;2023-07-16T02:25:31;11.60;;;2.70;;
3321;SDS011;1673;51.388;7.086;2023-07-16T02:28:01;6.22;;;2.40;;
3321;SDS011;1673;51.388;7.086;2023-07-16T02:30:34;9.52;;;2.72;;
3321;SDS011;1673;51.388;7.086;2023-07-16T02:33:07;8.90;;;2.53;;
3321;SDS011;1673;51.388;7.086;2023-07-16T02:35:37;7.43;;;2.65;;
3321;SDS011;1673;51.388;7.086;2023-07-16T02:38:06;8.07;;;2.60;;
3321;SDS011;1673;51.388;7.086;2023-07-16T02:40:36;8.93;;;2.60;;
3321;SDS011;1673;51.388;7.086;2023-07-16T02:43:12;8.20;;;2.70;;
3321;SDS011;1673;51.388;7.086;2023-07-16T02:45:47;8.80;;;2.90;;
3321;SDS011;1673;51.388;7.086;2023-07-16T02:48:17;7.60;;;2.53;;
3321;SDS011;1673;51.388;7.086;2023-07-16T02:50:46;6.50;;;2.70;;
3321;SDS011;1673;51.388;7.086;2023-07-16T02:53:16;6.60;;;2.72;;
3321;SDS011;1673;51.388;7.086;2023-07-16T02:55:46;6.75;;;2.60;;
3321;SDS011;1673;51.388;7.086;2023-07-16T03:04:32;9.27;;;2.97;;
3321;SDS011;1673;51.388;7.086;2023-07-16T03:07:03;10.20;;;2.80;;
3321;SDS011;1673;51.388;7.086;2023-07-16T03:09:36;12.20;;;3.17;;
3321;SDS011;1673;51.388;7.086;2023-07-16T03:12:09;7.45;;;2.63;;
3321;SDS011;1673;51.388;7.086;2023-07-16T03:14:41;12.65;;;2.70;;
3321;SDS011;1673;51.388;7.086;2023-07-16T03:17:12;7.07;;;2.53;;
3321;SDS011;1673;51.388;7.086;2023-07-16T03:19:48;9.67;;;2.00;;
3321;SDS011;1673;51.388;7.086;2023-07-16T03:22:19;12.87;;;2.70;;
3321;SDS011;1673;51.388;7.086;2023-07-16T03:24:50;13.40;;;2.88;;
3321;SDS011;1673;51.388;7.086;2023-07-16T03:27:20;10.45;;;2.50;;
3321;SDS011;1673;51.388;7.086;2023-07-16T03:29:56;8.30;;;2.30;;
3321;SDS011;1673;51.388;7.086;2023-07-16T03:32:27;8.10;;;2.80;;
3321;SDS011;1673;51.388;7.086;2023-07-16T03:35:20;9.60;;;2.40;;
3321;SDS011;1673;51.388;7.086;2023-07-16T03:37:52;12.47;;;3.10;;
3321;SDS011;1673;51.388;7.086;2023-07-16T03:40:25;8.90;;;2.50;;
3321;SDS011;1673;51.388;7.086;2023-07-16T03:42:56;8.63;;;2.58;;
3321;SDS011;1673;51.388;7.086;2023-07-16T03:45:26;8.52;;;2.90;;
3321;SDS011;1673;51.388;7.086;2023-07-16T03:47:56;11.40;;;2.90;;
3321;SDS011;1673;51.388;7.086;2023-07-16T03:50:29;8.57;;;2.60;;
3321;SDS011;1673;51.388;7.086;2023-07-16T03:52:59;8.60;;;2.97;;
3321;SDS011;1673;51.388;7.086;2023-07-16T03:55:30;8.00;;;2.43;;
3321;SDS011;1673;51.388;7.086;2023-07-16T03:58:00;7.47;;;2.33;;
3321;SDS011;1673;51.388;7.086;2023-07-16T04:00:30;9.38;;;2.60;;
3321;SDS011;1673;51.388;7.086;2023-07-16T04:03:00;11.85;;;2.80;;
3321;SDS011;1673;51.388;7.086;2023-07-16T04:05:33;9.02;;;2.78;;
3321;SDS011;1673;51.388;7.086;2023-07-16T04:08:03;7.67;;;2.93;;
3321;SDS011;1673;51.388;7.086;2023-07-16T04:10:35;8.85;;;3.00;;
3321;SDS011;1673;51.388;7.086;2023-07-16T04:13:04;9.20;;;3.30;;
3321;SDS011;1673;51.388;7.086;2023-07-16T04:15:34;12.60;;;3.00;;
3321;SDS011;1673;51.388;7.086;2023-07-16T04:18:04;7.95;;;2.63;;
3321;SDS011;1673;51.388;7.086;2023-07-16T04:20:37;11.30;;;3.25;;
3321;SDS011;1673;51.388;7.086;2023-07-16T04:23:07;13.40;;;2.85;;
3321;SDS011;1673;51.388;7.086;2023-07-16T04:25:37;6.38;;;2.50;;
3321;SDS011;1673;51.388;7.086;2023-07-16T04:28:07;14.05;;;3.20;;
3321;SDS011;1673;51.388;7.086;2023-07-16T04:30:37;12.68;;;2.97;;
3321;SDS011;1673;51.388;7.086;2023-07-16T04:33:07;12.17;;;2.90;;
3321;SDS011;1673;51.388;7.086;2023-07-16T04:35:39;10.98;;;3.15;;
3321;SDS011;1673;51.388;7.086;2023-07-16T04:38:09;10.35;;;3.10;;
3321;SDS011;1673;51.388;7.086;2023-07-16T04:40:39;9.90;;;2.90;;
3321;SDS011;1673;51.388;7.086;2023-07-16T04:43:11;8.05;;;3.20;;
3321;SDS011;1673;51.388;7.086;2023-07-16T04:45:40;15.30;;;3.05;;
3321;SDS011;1673;51.388;7.086;2023-07-16T04:48:13;10.95;;;2.90;;
3321;SDS011;1673;51.388;7.086;2023-07-16T04:50:46;8.20;;;3.58;;
3321;SDS011;1673;51.388;7.086;2023-07-16T04:53:16;15.30;;;3.97;;
3321;SDS011;1673;51.388;7.086;2023-07-16T04:55:46;10.00;;;2.95;;
3321;SDS011;1673;51.388;7.086;2023-07-16T04:58:16;10.95;;;3.85;;
3321;SDS011;1673;51.388;7.086;2023-07-16T05:00:46;12.25;;;2.88;;
3321;SDS011;1673;51.388;7.086;2023-07-16T05:03:16;10.48;;;3.05;;
3321;SDS011;1673;51.388;7.086;2023-07-16T05:05:48;11.20;;;2.85;;
3321;SDS011;1673;51.388;7.086;2023-07-16T05:08:18;11.75;;;3.70;;
3321;SDS011;1673;51.388;7.086;2023-07-16T05:10:48;13.17;;;3.37;;
3321;SDS011;1673;51.388;7.086;2023-07-16T05:13:18;10.60;;;3.30;;
3321;SDS011;1673;51.388;7.086;2023-07-16T05:15:48;9.55;;;2.70;;
3321;SDS011;1673;51.388;7.086;2023-07-16T05:18:18;11.48;;;3.50;;
3321;SDS011;1673;51.388;7.086;2023-07-16T05:20:51;19.40;;;3.85;;
3321;SDS011;1673;51.388;7.086;2023-07-16T05:23:21;10.55;;;3.30;;
3321;SDS011;1673;51.388;7.086;2023-07-16T05:25:51;11.35;;;3.42;;
3321;SDS011;1673;51.388;7.086;2023-07-16T05:28:21;8.30;;;3.45;;
3321;SDS011;1673;51.388;7.086;2023-07-16T05:30:57;12.13;;;3.25;;
3321;SDS011;1673;51.388;7.086;2023-07-16T05:33:27;10.27;;;3.30;;
3321;SDS011;1673;51.388;7.086;2023-07-16T05:36:00;8.37;;;3.30;;
3321;SDS011;1673;51.388;7.086;2023-07-16T05:38:30;10.33;;;3.40;;
3321;SDS011;1673;51.388;7.086;2023-07-16T05:41:00;8.60;;;2.80;;
3321;SDS011;1673;51.388;7.086;2023-07-16T05:43:31;15.05;;;3.20;;
3321;SDS011;1673;51.388;7.086;2023-07-16T05:46:02;11.00;;;3.67;;
3321;SDS011;1673;51.388;7.086;2023-07-16T05:48:32;13.87;;;4.00;;
3321;SDS011;1673;51.388;7.086;2023-07-16T05:51:04;9.57;;;3.63;;
3321;SDS011;1673;51.388;7.086;2023-07-16T05:53:34;14.10;;;4.30;;
3321;SDS011;1673;51.388;7.086;2023-07-16T05:56:04;18.08;;;4.45;;
3321;SDS011;1673;51.388;7.086;2023-07-16T05:58:34;10.80;;;3.93;;
3321;SDS011;1673;51.388;7.086;2023-07-16T06:01:04;11.88;;;3.55;;
3321;SDS011;1673;51.388;7.086;2023-07-16T06:03:34;12.10;;;4.20;;
3321;SDS011;1673;51.388;7.086;2023-07-16T06:06:07;14.75;;;4.78;;
3321;SDS011;1673;51.388;7.086;2023-07-16T06:08:37;16.37;;;4.10;;
3321;SDS011;1673;51.388;7.086;2023-07-16T06:11:07;15.65;;;4.53;;
3321;SDS011;1673;51.388;7.086;2023-07-16T06:13:37;13.13;;;4.20;;
3321;SDS011;1673;51.388;7.086;2023-07-16T06:16:07;11.63;;;3.97;;
3321;SDS011;1673;51.388;7.086;2023-07-16T06:18:37;13.10;;;4.32;;
3321;SDS011;1673;51.388;7.086;2023-07-16T06:21:09;14.45;;;4.50;;
3321;SDS011;1673;51.388;7.086;2023-07-16T06:23:39;11.20;;;4.28;;
3321;SDS011;1673;51.388;7.086;2023-07-16T06:26:09;12.85;;;4.70;;
3321;SDS011;1673;51.388;7.086;2023-07-16T06:28:43;15.40;;;5.38;;
3321;SDS011;1673;51.388;7.086;2023-07-16T06:31:15;16.03;;;4.80;;
3321;SDS011;1673;51.388;7.086;2023-07-16T06:33:45;12.52;;;4.68;;
3321;SDS011;1673;51.388;7.086;2023-07-16T06:36:20;21.63;;;5.00;;
3321;SDS011;1673;51.388;7.086;2023-07-16T06:38:49;15.83;;;4.73;;
3321;SDS011;1673;51.388;7.086;2023-07-16T06:41:19;14.65;;;5.10;;
3321;SDS011;1673;51.388;7.086;2023-07-16T06:43:49;12.37;;;4.50;;
3321;SDS011;1673;51.388;7.086;2023-07-16T06:46:19;14.70;;;5.00;;
3321;SDS011;1673;51.388;7.086;2023-07-16T06:48:49;13.80;;;4.60;;
3321;SDS011;1673;51.388;7.086;2023-07-16T06:51:22;14.18;;;5.05;;
3321;SDS011;1673;51.388;7.086;2023-07-16T06:53:51;12.90;;;4.50;;
3321;SDS011;1673;51.388;7.086;2023-07-16T06:56:21;14.52;;;5.07;;
3321;SDS011;1673;51.388;7.086;2023-07-16T06:58:51;15.77;;;5.13;;
3321;SDS011;1673;51.388;7.086;2023-07-16T07:01:21;13.23;;;4.45;;
3321;SDS011;1673;51.388;7.086;2023-07-16T07:03:54;13.57;;;5.38;;
3321;SDS011;1673;51.388;7.086;2023-07-16T07:06:27;14.75;;;5.30;;
3321;SDS011;1673;51.388;7.086;2023-07-16T07:08:57;14.52;;;4.53;;
3321;SDS011;1673;51.388;7.086;2023-07-16T07:11:27;12.60;;;4.83;;
3321;SDS011;1673;51.388;7.086;2023-07-16T07:13:57;20.40;;;6.10;;
3321;SDS011;1673;51.388;7.086;2023-07-16T07:16:26;14.70;;;5.20;;
3321;SDS011;1673;51.388;7.086;2023-07-16T07:18:56;15.40;;;5.68;;
3321;SDS011;1673;51.388;7.086;2023-07-16T07:21:29;17.00;;;5.38;;
3321;SDS011;1673;51.388;7.086;2023-07-16T07:23:59;17.30;;;5.90;;
3321;SDS011;1673;51.388;7.086;2023-07-16T07:26:29;15.47;;;5.20;;
3321;SDS011;1673;51.388;7.086;2023-07-16T07:28:58;15.65;;;5.88;;
3321;SDS011;1673;51.388;7.086;2023-07-16T07:31:28;13.95;;;5.38;;
3321;SDS011;1673;51.388;7.086;2023-07-16T07:33:58;17.40;;;5.55;;
3321;SDS011;1673;51.388;7.086;2023-07-16T07:36:31;13.20;;;6.13;;
3321;SDS011;1673;51.388;7.086;2023-07-16T07:39:01;12.43;;;5.32;;
3321;SDS011;1673;51.388;7.086;2023-07-16T07:41:32;11.77;;;4.90;;
3321;SDS011;1673;51.388;7.086;2023-07-16T07:44:02;15.47;;;5.50;;
3321;SDS011;1673;51.388;7.086;2023-07-16T07:46:32;16.38;;;5.00;;
3321;SDS011;1673;51.388;7.086;2023-07-16T07:49:02;12.90;;;5.22;;
3321;SDS011;1673;51.388;7.086;2023-07-16T07:51:35;13.63;;;5.50;;
3321;SDS011;1673;51.388;7.086;2023-07-16T07:54:05;15.87;;;6.27;;
3321;SDS011;1673;51.388;7.086;2023-07-16T07:56:34;16.75;;;5.30;;
3321;SDS011;1673;51.388;7.086;2023-07-16T07:59:05;31.90;;;5.70;;
3321;SDS011;1673;51.388;7.086;2023-07-16T08:01:36;13.23;;;4.65;;
3321;SDS011;1673;51.388;7.086;2023-07-16T08:04:06;14.18;;;5.32;;
3321;SDS011;1673;51.388;7.086;2023-07-16T08:06:38;12.40;;;5.20;;
3321;SDS011;1673;51.388;7.086;2023-07-16T08:09:08;17.25;;;5.65;;
3321;SDS011;1673;51.388;7.086;2023-07-16T08:11:38;14.83;;;5.00;;
3321;SDS011;1673;51.388;7.086;2023-07-16T08:14:08;15.77;;;5.63;;
3321;SDS011;1673;51.388;7.086;2023-07-16T08:16:38;13.13;;;5.40;;
3321;SDS011;1673;51.388;7.086;2023-07-16T08:19:08;12.18;;;4.80;;
3321;SDS011;1673;51.388;7.086;2023-07-16T08:21:40;15.80;;;5.00;;
3321;SDS011;1673;51.388;7.086;2023-07-16T08:24:10;13.37;;;5.33;;
3321;SDS011;1673;51.388;7.086;2023-07-16T08:26:40;10.40;;;4.53;;
3321;SDS011;1673;51.388;7.086;2023-07-16T08:29:10;14.10;;;5.40;;
3321;SDS011;1673;51.388;7.086;2023-07-16T08:31:40;12.98;;;5.47;;
3321;SDS011;1673;51.388;7.086;2023-07-16T08:34:09;12.13;;;5.03;;
3321;SDS011;1673;51.388;7.086;2023-07-16T08:36:42;15.57;;;5.80;;
3321;SDS011;1673;51.388;7.086;2023-07-16T08:39:12;11.35;;;4.70;;
3321;SDS011;1673;51.388;7.086;2023-07-16T08:41:47;13.30;;;4.60;;
3321;SDS011;1673;51.388;7.086;2023-07-16T08:44:17;11.40;;;4.72;;
3321;SDS011;1673;51.388;7.086;2023-07-16T08:46:47;10.70;;;4.20;;
3321;SDS011;1673;51.388;7.086;2023-07-16T08:49:17;9.37;;;4.30;;
3321;SDS011;1673;51.388;7.086;2023-07-16T08:51:50;14.85;;;4.70;;
3321;SDS011;1673;51.388;7.086;2023-07-16T08:54:21;15.10;;;4.82;;
3321;SDS011;1673;51.388;7.086;2023-07-16T08:56:55;10.27;;;4.60;;
3321;SDS011;1673;51.388;7.086;2023-07-16T08:59:25;14.80;;;5.00;;
3321;SDS011;1673;51.388;7.086;2023-07-16T09:01:55;12.88;;;4.43;;
3321;SDS011;1673;51.388;7.086;2023-07-16T09:04:25;13.57;;;4.75;;
3321;SDS011;1673;51.388;7.086;2023-07-16T09:06:59;11.75;;;4.05;;
3321;SDS011;1673;51.388;7.086;2023-07-16T09:09:29;11.25;;;4.00;;
3321;SDS011;1673;51.388;7.086;2023-07-16T09:11:59;12.38;;;4.60;;
3321;SDS011;1673;51.388;7.086;2023-07-16T09:14:29;11.45;;;4.40;;
3321;SDS011;1673;51.388;7.086;2023-07-16T09:16:59;11.97;;;4.40;;
3321;SDS011;1673;51.388;7.086;2023-07-16T09:19:31;13.77;;;4.55;;
3321;SDS011;1673;51.388;7.086;2023-07-16T09:22:04;15.52;;;4.90;;
3321;SDS011;1673;51.388;7.086;2023-07-16T09:24:35;9.63;;;4.37;;
3321;SDS011;1673;51.388;7.086;2023-07-16T09:27:05;12.50;;;4.10;;
3321;SDS011;1673;51.388;7.086;2023-07-16T09:29:37;10.25;;;4.20;;
3321;SDS011;1673;51.388;7.086;2023-07-16T09:32:08;13.02;;;4.20;;
3321;SDS011;1673;51.388;7.086;2023-07-16T09:34:38;11.05;;;4.43;;
3321;SDS011;1673;51.388;7.086;2023-07-16T09:37:10;11.23;;;4.40;;
3321;SDS011;1673;51.388;7.086;2023-07-16T09:39:41;11.93;;;4.20;;
3321;SDS011;1673;51.388;7.086;2023-07-16T09:42:12;13.70;;;4.75;;
3321;SDS011;1673;51.388;7.086;2023-07-16T09:44:46;9.20;;;4.35;;
3321;SDS011;1673;51.388;7.086;2023-07-16T09:47:16;13.38;;;4.22;;
3321;SDS011;1673;51.388;7.086;2023-07-16T09:49:46;13.23;;;3.90;;
3321;SDS011;1673;51.388;7.086;2023-07-16T09:52:18;10.40;;;4.20;;
3321;SDS011;1673;51.388;7.086;2023-07-16T09:54:48;14.60;;;4.40;;
3321;SDS011;1673;51.388;7.086;2023-07-16T09:57:20;11.50;;;4.30;;
3321;SDS011;1673;51.388;7.086;2023-07-16T09:59:51;9.77;;;4.43;;
3321;SDS011;1673;51.388;7.086;2023-07-16T10:02:22;9.93;;;3.90;;
3321;SDS011;1673;51.388;7.086;2023-07-16T10:04:52;8.57;;;3.70;;
3321;SDS011;1673;51.388;7.086;2023-07-16T10:07:26;11.30;;;4.30;;
3321;SDS011;1673;51.388;7.086;2023-07-16T10:09:56;13.27;;;4.55;;
3321;SDS011;1673;51.388;7.086;2023-07-16T10:12:29;12.50;;;3.90;;
3321;SDS011;1673;51.388;7.086;2023-07-16T10:14:59;8.77;;;4.10;;
3321;SDS011;1673;51.388;7.086;2023-07-16T10:17:31;11.27;;;4.50;;
3321;SDS011;1673;51.388;7.086;2023-07-16T10:20:02;12.30;;;4.45;;
3321;SDS011;1673;51.388;7.086;2023-07-16T10:22:40;10.95;;;4.40;;
3321;SDS011;1673;51.388;7.086;2023-07-16T10:25:22;13.60;;;4.80;;
3321;SDS011;1673;51.388;7.086;2023-07-16T10:27:53;10.17;;;3.90;;
3321;SDS011;1673;51.388;7.086;2023-07-16T10:30:23;10.35;;;3.47;;
3321;SDS011;1673;51.388;7.086;2023-07-16T10:32:53;12.23;;;3.80;;
3321;SDS011;1673;51.388;7.086;2023-07-16T10:35:23;11.88;;;4.50;;
3321;SDS011;1673;51.388;7.086;2023-07-16T10:37:56;9.98;;;4.00;;
3321;SDS011;1673;51.388;7.086;2023-07-16T10:40:26;12.57;;;4.47;;
3321;SDS011;1673;51.388;7.086;2023-07-16T10:42:57;8.18;;;3.70;;
3321;SDS011;1673;51.388;7.086;2023-07-16T10:45:26;8.38;;;3.60;;
3321;SDS011;1673;51.388;7.086;2023-07-16T10:47:58;10.75;;;3.80;;
3321;SDS011;1673;51.388;7.086;2023-07-16T10:50:28;12.30;;;4.20;;
3321;SDS011;1673;51.388;7.086;2023-07-16T10:53:04;11.45;;;3.75;;
3321;SDS011;1673;51.388;7.086;2023-07-16T10:55:34;14.07;;;4.00;;
3321;SDS011;1673;51.388;7.086;2023-07-16T10:58:05;10.98;;;4.15;;
3321;SDS011;1673;51.388;7.086;2023-07-16T11:00:36;8.73;;;3.50;;
3321;SDS011;1673;51.388;7.086;2023-07-16T11:03:07;13.07;;;4.00;;
3321;SDS011;1673;51.388;7.086;2023-07-16T11:05:39;9.07;;;4.40;;
3321;SDS011;1673;51.388;7.086;2023-07-16T11:08:20;14.60;;;4.38;;
3321;SDS011;1673;51.388;7.086;2023-07-16T11:10:54;9.80;;;4.20;;
3321;SDS011;1673;51.388;7.086;2023-07-16T11:13:25;9.93;;;4.15;;
3321;SDS011;1673;51.388;7.086;2023-07-16T11:15:56;12.05;;;3.92;;
3321;SDS011;1673;51.388;7.086;2023-07-16T11:18:26;8.77;;;3.67;;
3321;SDS011;1673;51.388;7.086;2023-07-16T11:20:56;9.68;;;4.05;;
3321;SDS011;1673;51.388;7.086;2023-07-16T11:23:28;13.30;;;4.60;;
3321;SDS011;1673;51.388;7.086;2023-07-16T11:26:01;11.30;;;3.70;;
3321;SDS011;1673;51.388;7.086;2023-07-16T11:28:37;8.30;;;3.50;;
3321;SDS011;1673;51.388;7.086;2023-07-16T11:31:11;11.50;;;4.18;;
3321;SDS011;1673;51.388;7.086;2023-07-16T11:33:43;10.33;;;4.30;;
3321;SDS011;1673;51.388;7.086;2023-07-16T11:36:13;6.80;;;3.42;;
3321;SDS011;1673;51.388;7.086;2023-07-16T11:38:46;9.75;;;3.90;;
3321;SDS011;1673;51.388;7.086;2023-07-16T11:41:19;8.52;;;3.80;;
3321;SDS011;1673;51.388;7.086;2023-07-16T11:43:50;12.30;;;4.63;;
3321;SDS011;1673;51.388;7.086;2023-07-16T11:46:19;8.90;;;4.20;;
3321;SDS011;1673;51.388;7.086;2023-07-16T11:48:50;16.88;;;3.88;;
3321;SDS011;1673;51.388;7.086;2023-07-16T11:51:19;11.45;;;3.90;;
3321;SDS011;1673;51.388;7.086;2023-07-16T11:53:52;10.03;;;3.60;;
3321;SDS011;1673;51.388;7.086;2023-07-16T11:56:22;9.13;;;4.25;;
3321;SDS011;1673;51.388;7.086;2023-07-16T11:58:49;9.85;;;4.20;;
3321;SDS011;1673;51.388;7.086;2023-07-16T12:01:20;12.45;;;4.32;;
3321;SDS011;1673;51.388;7.086;2023-07-16T12:03:49;11.20;;;4.00;;
3321;SDS011;1673;51.388;7.086;2023-07-16T12:06:19;9.35;;;3.80;;
3321;SDS011;1673;51.388;7.086;2023-07-16T12:08:52;10.02;;;4.13;;
3321;SDS011;1673;51.388;7.086;2023-07-16T12:11:22;11.48;;;3.20;;
3321;SDS011;1673;51.388;7.086;2023-07-16T12:13:52;12.05;;;4.20;;
3321;SDS011;1673;51.388;7.086;2023-07-16T12:16:19;10.50;;;4.10;;
3321;SDS011;1673;51.388;7.086;2023-07-16T12:18:49;8.32;;;3.20;;
3321;SDS011;1673;51.388;7.086;2023-07-16T12:21:18;10.27;;;3.47;;
3321;SDS011;1673;51.388;7.086;2023-07-16T12:23:48;10.80;;;3.65;;
3321;SDS011;1673;51.388;7.086;2023-07-16T12:26:21;11.68;;;4.05;;
3321;SDS011;1673;51.388;7.086;2023-07-16T12:28:50;11.50;;;4.00;;
3321;SDS011;1673;51.388;7.086;2023-07-16T12:31:20;9.73;;;3.88;;
3321;SDS011;1673;51.388;7.086;2023-07-16T12:33:50;8.77;;;3.58;;
3321;SDS011;1673;51.388;7.086;2023-07-16T12:36:20;11.07;;;3.60;;
3321;SDS011;1673;51.388;7.086;2023-07-16T12:38:50;8.48;;;3.25;;
3321;SDS011;1673;51.388;7.086;2023-07-16T12:41:23;11.30;;;3.13;;
3321;SDS011;1673;51.388;7.086;2023-07-16T12:43:52;12.10;;;3.70;;
3321;SDS011;1673;51.388;7.086;2023-07-16T12:46:22;11.93;;;3.72;;
3321;SDS011;1673;51.388;7.086;2023-07-16T12:48:52;10.80;;;3.90;;
3321;SDS011;1673;51.388;7.086;2023-07-16T12:51:22;11.50;;;4.00;;
3321;SDS011;1673;51.388;7.086;2023-07-16T12:53:55;11.05;;;3.50;;
3321;SDS011;1673;51.388;7.086;2023-07-16T12:56:29;10.75;;;3.85;;
3321;SDS011;1673;51.388;7.086;2023-07-16T12:58:59;8.90;;;3.70;;
3321;SDS011;1673;51.388;7.086;2023-07-16T13:01:30;15.27;;;4.13;;
3321;SDS011;1673;51.388;7.086;2023-07-16T13:04:00;11.18;;;3.60;;
3321;SDS011;1673;51.388;7.086;2023-07-16T13:06:30;11.00;;;3.87;;
3321;SDS011;1673;51.388;7.086;2023-07-16T13:08:59;13.27;;;4.00;;
3321;SDS011;1673;51.388;7.086;2023-07-16T13:11:34;8.43;;;3.23;;
3321;SDS011;1673;51.388;7.086;2023-07-16T13:14:04;8.27;;;3.65;;
3321;SDS011;1673;51.388;7.086;2023-07-16T13:16:34;11.00;;;3.90;;
3321;SDS011;1673;51.388;7.086;2023-07-16T13:19:04;11.95;;;3.63;;
3321;SDS011;1673;51.388;7.086;2023-07-16T13:21:34;9.60;;;3.95;;
3321;SDS011;1673;51.388;7.086;2023-07-16T13:24:04;11.35;;;3.60;;
3321;SDS011;1673;51.388;7.086;2023-07-16T13:26:38;10.35;;;3.85;;
3321;SDS011;1673;51.388;7.086;2023-07-16T13:29:08;12.13;;;3.95;;
3321;SDS011;1673;51.388;7.086;2023-07-16T13:31:37;10.65;;;3.65;;
3321;SDS011;1673;51.388;7.086;2023-07-16T13:34:07;10.30;;;3.90;;
3321;SDS011;1673;51.388;7.086;2023-07-16T13:36:37;13.00;;;4.13;;
3321;SDS011;1673;51.388;7.086;2023-07-16T13:39:07;10.50;;;4.07;;
3321;SDS011;1673;51.388;7.086;2023-07-16T13:41:42;10.80;;;3.75;;
3321;SDS011;1673;51.388;7.086;2023-07-16T13:44:12;10.80;;;3.70;;
3321;SDS011;1673;51.388;7.086;2023-07-16T13:46:42;11.10;;;4.10;;
3321;SDS011;1673;51.388;7.086;2023-07-16T13:49:12;12.57;;;4.55;;
3321;SDS011;1673;51.388;7.086;2023-07-16T13:51:42;11.35;;;4.07;;
3321;SDS011;1673;51.388;7.086;2023-07-16T13:54:12;8.48;;;3.70;;
3321;SDS011;1673;51.388;7.086;2023-07-16T13:56:44;14.40;;;4.30;;
3321;SDS011;1673;51.388;7.086;2023-07-16T13:59:14;12.57;;;4.05;;
3321;SDS011;1673;51.388;7.086;2023-07-16T14:01:44;13.00;;;4.30;;
3321;SDS011;1673;51.388;7.086;2023-07-16T14:04:14;11.55;;;4.45;;
3321;SDS011;1673;51.388;7.086;2023-07-16T14:06:44;9.15;;;4.07;;
3321;SDS011;1673;51.388;7.086;2023-07-16T14:09:14;12.70;;;4.27;;
3321;SDS011;1673;51.388;7.086;2023-07-16T14:11:47;13.60;;;4.22;;
3321;SDS011;1673;51.388;7.086;2023-07-16T14:14:17;11.48;;;4.07;;
3321;SDS011;1673;51.388;7.086;2023-07-16T14:16:47;8.90;;;4.10;;
3321;SDS011;1673;51.388;7.086;2023-07-16T14:19:17;11.40;;;4.00;;
3321;SDS011;1673;51.388;7.086;2023-07-16T14:21:47;12.40;;;4.60;;
3321;SDS011;1673;51.388;7.086;2023-07-16T14:24:17;9.10;;;4.00;;
3321;SDS011;1673;51.388;7.086;2023-07-16T14:26:49;9.30;;;4.20;;
3321;SDS011;1673;51.388;7.086;2023-07-16T14:29:19;11.83;;;4.47;;
3321;SDS011;1673;51.388;7.086;2023-07-16T14:31:49;12.82;;;4.43;;
3321;SDS011;1673;51.388;7.086;2023-07-16T14:34:21;9.18;;;3.70;;
3321;SDS011;1673;51.388;7.086;2023-07-16T14:36:51;13.00;;;4.07;;
3321;SDS011;1673;51.388;7.086;2023-07-16T14:39:21;11.00;;;4.30;;
3321;SDS011;1673;51.388;7.086;2023-07-16T14:41:54;8.30;;;4.05;;
3321;SDS011;1673;51.388;7.086;2023-07-16T14:44:24;9.63;;;3.80;;
3321;SDS011;1673;51.388;7.086;2023-07-16T14:46:54;11.75;;;4.20;;
3321;SDS011;1673;51.388;7.086;2023-07-16T14:49:23;8.32;;;3.55;;
3321;SDS011;1673;51.388;7.086;2023-07-16T14:51:53;13.70;;;4.20;;
3321;SDS011;1673;51.388;7.086;2023-07-16T14:54:23;10.52;;;3.72;;
3321;SDS011;1673;51.388;7.086;2023-07-16T14:56:55;11.50;;;3.83;;
3321;SDS011;1673;51.388;7.086;2023-07-16T14:59:25;9.65;;;3.40;;
3321;SDS011;1673;51.388;7.086;2023-07-16T15:01:55;10.43;;;3.53;;
3321;SDS011;1673;51.388;7.086;2023-07-16T15:04:25;8.60;;;3.63;;
3321;SDS011;1673;51.388;7.086;2023-07-16T15:06:55;10.90;;;4.73;;
3321;SDS011;1673;51.388;7.086;2023-07-16T15:09:25;11.57;;;5.13;;
3321;SDS011;1673;51.388;7.086;2023-07-16T15:11:58;10.73;;;4.20;;
3321;SDS011;1673;51.388;7.086;2023-07-16T15:14:28;9.07;;;3.60;;
3321;SDS011;1673;51.388;7.086;2023-07-16T15:16:58;11.55;;;4.10;;
3321;SDS011;1673;51.388;7.086;2023-07-16T15:19:28;8.70;;;3.90;;
3321;SDS011;1673;51.388;7.086;2023-07-16T15:21:58;12.38;;;4.28;;
3321;SDS011;1673;51.388;7.086;2023-07-16T15:24:27;12.35;;;5.28;;
3321;SDS011;1673;51.388;7.086;2023-07-16T15:27:01;13.73;;;5.30;;
3321;SDS011;1673;51.388;7.086;2023-07-16T15:29:30;9.13;;;4.30;;
3321;SDS011;1673;51.388;7.086;2023-07-16T15:32:00;11.18;;;4.18;;
3321;SDS011;1673;51.388;7.086;2023-07-16T15:34:30;13.75;;;3.50;;
3321;SDS011;1673;51.388;7.086;2023-07-16T15:37:00;7.37;;;3.10;;